Time;durP1;ratioP1;P1;durP2;ratioP2;P2;SDS_P1;SDS_P2;PMS_P1;PMS_P2;Temp;Humidity;BMP_temperature;BMP_pressure;BME280_temperature;BME280_humidity;BME280_pressure;Samples;Min_cycle;Max_cycle;Signal;HPM_P1;HPM_P2
2023/01/10 00:02:05;;;;;;;13.38;2.60;;;;;;;;;;5027104;28;20017;-81
2023/01/10 00:04:30;;;;;;;8.00;2.05;;;;;;;;;;5027681;28;20029;-81
2023/01/10 00:06:56;;;;;;;10.25;2.33;;;;;;;;;;5028668;28;20033;-81
2023/01/10 00:09:21;;;;;;;15.48;2.30;;;;;;;;;;5028475;28;20584;-81
2023/01/10 00:14:33;;;;;;;5.32;2.22;;;;;;;;;;5029196;28;20584;-81
2023/01/10 00:17:02;;;;;;;13.57;1.92;;;;;;;;;;5027443;28;20077;-82
2023/01/10 00:19:27;;;;;;;9.30;1.95;;;;;;;;;;5028699;28;20044;-81
2023/01/10 00:21:53;;;;;;;10.40;2.03;;;;;;;;;;5044013;28;20033;-81
2023/01/10 00:24:19;;;;;;;6.55;1.50;;;;;;;;;;5036530;28;20040;-81
2023/01/10 00:26:49;;;;;;;3.65;1.75;;;;;;;;;;5013044;28;20057;-81
2023/01/10 00:29:18;;;;;;;12.85;2.50;;;;;;;;;;5007018;28;20552;-81
2023/01/10 00:31:43;;;;;;;9.93;1.83;;;;;;;;;;5008353;28;20026;-81
2023/01/10 00:34:09;;;;;;;12.25;2.50;;;;;;;;;;5008722;28;20033;-81
2023/01/10 00:36:34;;;;;;;6.82;1.90;;;;;;;;;;5007362;28;20045;-81
2023/01/10 00:39:00;;;;;;;4.25;1.83;;;;;;;;;;5021453;28;20048;-83
2023/01/10 00:44:09;;;;;;;8.02;2.25;;;;;;;;;;5027810;28;20410;-81
2023/01/10 00:46:34;;;;;;;7.07;1.90;;;;;;;;;;5027366;28;20108;-82
2023/01/10 00:49:00;;;;;;;10.82;2.03;;;;;;;;;;5027753;28;20113;-81
2023/01/10 00:51:25;;;;;;;8.43;1.73;;;;;;;;;;5025690;28;20037;-81
2023/01/10 00:53:50;;;;;;;8.00;2.10;;;;;;;;;;5028156;28;20036;-82
2023/01/10 00:56:15;;;;;;;12.95;2.10;;;;;;;;;;5027262;28;20334;-82
2023/01/10 00:58:43;;;;;;;6.85;1.73;;;;;;;;;;5026949;28;20060;-82
2023/01/10 01:01:09;;;;;;;13.90;1.90;;;;;;;;;;5028216;28;20510;-82
2023/01/10 01:03:34;;;;;;;8.90;1.90;;;;;;;;;;5026415;28;20087;-82
2023/01/10 01:06:03;;;;;;;7.25;1.88;;;;;;;;;;5026539;28;20050;-82
2023/01/10 01:08:29;;;;;;;3.97;1.40;;;;;;;;;;5020786;28;20576;-82
2023/01/10 01:10:54;;;;;;;14.45;1.67;;;;;;;;;;5006736;28;20025;-82
2023/01/10 01:13:20;;;;;;;6.85;1.38;;;;;;;;;;5008146;28;20083;-82
2023/01/10 01:15:47;;;;;;;7.78;1.65;;;;;;;;;;5007262;28;20040;-82
2023/01/10 01:18:16;;;;;;;4.18;1.52;;;;;;;;;;5007742;28;20038;-82
2023/01/10 01:20:44;;;;;;;6.45;1.42;;;;;;;;;;5009323;28;20034;-81
2023/01/10 01:23:10;;;;;;;8.48;1.80;;;;;;;;;;5008013;28;20037;-82
2023/01/10 01:25:35;;;;;;;6.95;2.13;;;;;;;;;;5009508;28;20026;-82
2023/01/10 01:28:01;;;;;;;4.68;1.75;;;;;;;;;;5009003;28;20042;-82
2023/01/10 01:30:26;;;;;;;11.52;2.17;;;;;;;;;;5007117;28;20169;-82
2023/01/10 01:32:52;;;;;;;13.13;1.73;;;;;;;;;;5004348;28;20049;-83
2023/01/10 01:35:17;;;;;;;12.88;2.17;;;;;;;;;;5014414;28;20036;-82
2023/01/10 01:37:43;;;;;;;7.38;1.80;;;;;;;;;;5025680;28;20034;-83
2023/01/10 01:40:14;;;;;;;15.75;2.65;;;;;;;;;;5026228;28;20219;-83
2023/01/10 01:42:40;;;;;;;9.27;2.20;;;;;;;;;;5024464;28;20040;-82
2023/01/10 01:45:08;;;;;;;6.97;1.60;;;;;;;;;;5026632;28;20037;-82
2023/01/10 01:47:45;;;;;;;4.65;1.80;;;;;;;;;;5027573;28;20172;-82
2023/01/10 01:50:29;;;;;;;9.77;1.95;;;;;;;;;;5028294;28;20403;-81
2023/01/10 01:52:56;;;;;;;4.63;1.75;;;;;;;;;;5030942;28;20100;-82
2023/01/10 01:55:24;;;;;;;13.63;1.63;;;;;;;;;;5029705;28;20037;-83
2023/01/10 01:57:52;;;;;;;8.35;2.22;;;;;;;;;;5031253;28;20037;-82
2023/01/10 02:00:18;;;;;;;8.52;2.10;;;;;;;;;;5030084;28;20052;-81
2023/01/10 02:02:50;;;;;;;10.75;1.77;;;;;;;;;;5029398;28;20395;-81
2023/01/10 02:05:17;;;;;;;11.02;2.00;;;;;;;;;;5009348;28;20025;-82
2023/01/10 02:07:46;;;;;;;10.07;1.90;;;;;;;;;;5011647;28;20057;-82
2023/01/10 02:10:12;;;;;;;3.50;1.42;;;;;;;;;;5009501;28;20117;-82
2023/01/10 02:12:38;;;;;;;5.43;1.52;;;;;;;;;;5010990;28;20065;-82
2023/01/10 02:15:04;;;;;;;4.60;2.03;;;;;;;;;;5009275;28;20042;-82
2023/01/10 02:17:30;;;;;;;7.65;2.10;;;;;;;;;;5009384;28;20053;-82
2023/01/10 02:20:07;;;;;;;8.00;1.60;;;;;;;;;;5010786;28;20026;-82
2023/01/10 02:22:51;;;;;;;2.60;1.48;;;;;;;;;;5009380;28;20042;-81
2023/01/10 02:25:18;;;;;;;6.00;1.45;;;;;;;;;;5010565;28;20054;-81
2023/01/10 02:28:11;;;;;;;5.65;1.65;;;;;;;;;;5009194;28;20088;-81
2023/01/10 02:31:02;;;;;;;11.93;2.55;;;;;;;;;;5010444;28;20034;-82
2023/01/10 02:33:43;;;;;;;9.68;1.50;;;;;;;;;;5010995;28;20056;-82
2023/01/10 02:36:35;;;;;;;15.50;2.22;;;;;;;;;;5017362;28;20052;-82
2023/01/10 02:39:10;;;;;;;6.85;1.67;;;;;;;;;;5028694;28;20046;-82
2023/01/10 02:42:08;;;;;;;11.68;2.13;;;;;;;;;;5029302;28;20513;-82
2023/01/10 02:44:40;;;;;;;16.55;1.90;;;;;;;;;;5028584;28;20029;-83
2023/01/10 02:47:07;;;;;;;9.90;2.35;;;;;;;;;;5030386;28;20052;-82
2023/01/10 02:49:43;;;;;;;6.72;1.80;;;;;;;;;;5029371;28;20021;-82
2023/01/10 02:52:09;;;;;;;8.25;2.28;;;;;;;;;;5028170;28;20047;-83
2023/01/10 02:54:35;;;;;;;12.68;2.90;;;;;;;;;;5030441;28;20057;-82
2023/01/10 02:57:23;;;;;;;12.07;1.98;;;;;;;;;;5021419;28;20607;-82
2023/01/10 03:00:26;;;;;;;14.10;2.28;;;;;;;;;;5009815;28;20521;-82
2023/01/10 03:03:11;;;;;;;17.38;2.10;;;;;;;;;;5026660;28;20528;-82
2023/01/10 03:06:11;;;;;;;5.07;1.65;;;;;;;;;;5013862;28;20765;-82
2023/01/10 03:09:06;;;;;;;12.23;1.70;;;;;;;;;;5024829;28;20034;-82
2023/01/10 03:11:39;;;;;;;18.38;1.83;;;;;;;;;;5000261;28;20042;-82
2023/01/10 03:14:27;;;;;;;12.57;2.75;;;;;;;;;;5028018;28;20014;-82
2023/01/10 03:17:03;;;;;;;17.58;2.50;;;;;;;;;;5028205;28;20045;-82
2023/01/10 03:19:32;;;;;;;12.25;1.65;;;;;;;;;;5030081;28;20052;-82
2023/01/10 03:22:00;;;;;;;9.85;1.73;;;;;;;;;;5043717;28;20526;-82
2023/01/10 03:24:34;;;;;;;10.82;2.03;;;;;;;;;;5040214;28;20417;-82
2023/01/10 03:27:10;;;;;;;9.77;2.08;;;;;;;;;;5049616;28;20071;-81
2023/01/10 03:30:26;;;;;;;17.80;2.45;;;;;;;;;;5048978;28;20029;-81
2023/01/10 03:32:54;;;;;;;6.53;2.03;;;;;;;;;;4995960;28;20061;-83
2023/01/10 03:35:21;;;;;;;18.48;2.92;;;;;;;;;;5032210;28;20079;-82
2023/01/10 03:38:08;;;;;;;12.07;3.45;;;;;;;;;;5047630;28;20029;-82
2023/01/10 03:40:56;;;;;;;11.57;2.33;;;;;;;;;;5048600;28;20032;-82
2023/01/10 03:46:29;;;;;;;10.25;2.90;;;;;;;;;;5048843;28;20044;-82
2023/01/10 03:48:57;;;;;;;18.13;3.17;;;;;;;;;;5047655;28;20035;-82
2023/01/10 03:51:22;;;;;;;17.80;3.08;;;;;;;;;;5050095;28;20191;-82
2023/01/10 03:53:48;;;;;;;16.67;2.95;;;;;;;;;;5051011;28;20530;-82
2023/01/10 03:56:13;;;;;;;15.43;2.38;;;;;;;;;;5049959;28;20028;-82
2023/01/10 03:58:39;;;;;;;20.88;3.33;;;;;;;;;;5043276;28;20108;-83
2023/01/10 04:01:04;;;;;;;14.85;2.67;;;;;;;;;;5048996;28;20553;-83
2023/01/10 04:03:29;;;;;;;14.75;2.70;;;;;;;;;;5035666;28;20028;-83
2023/01/10 04:05:55;;;;;;;11.02;1.48;;;;;;;;;;5028442;28;20033;-81
2023/01/10 04:08:20;;;;;;;7.28;2.25;;;;;;;;;;5027453;28;20041;-82
2023/01/10 04:10:48;;;;;;;16.52;2.53;;;;;;;;;;5016846;28;20191;-82
2023/01/10 04:13:13;;;;;;;10.98;2.38;;;;;;;;;;5017785;28;20464;-82
2023/01/10 04:15:38;;;;;;;16.90;2.15;;;;;;;;;;5019065;28;20724;-82
2023/01/10 04:18:04;;;;;;;11.45;1.85;;;;;;;;;;5028323;28;20036;-82
2023/01/10 04:20:29;;;;;;;13.13;2.08;;;;;;;;;;5028443;28;20041;-83
2023/01/10 04:22:54;;;;;;;5.93;1.42;;;;;;;;;;5026581;28;20021;-83
2023/01/10 04:25:23;;;;;;;8.82;2.47;;;;;;;;;;5025323;28;20517;-83
2023/01/10 04:27:51;;;;;;;13.25;1.75;;;;;;;;;;5026744;28;20025;-82
2023/01/10 04:30:18;;;;;;;6.43;1.85;;;;;;;;;;5027373;28;20595;-82
2023/01/10 04:32:43;;;;;;;9.85;1.40;;;;;;;;;;5022873;28;20030;-82
2023/01/10 04:35:09;;;;;;;11.60;2.58;;;;;;;;;;5023093;28;20022;-82
2023/01/10 04:37:34;;;;;;;8.18;1.95;;;;;;;;;;5024373;28;20436;-82
2023/01/10 04:39:59;;;;;;;13.95;1.88;;;;;;;;;;5009065;28;20088;-82
2023/01/10 04:42:25;;;;;;;15.00;2.20;;;;;;;;;;5027798;28;20034;-82
2023/01/10 04:44:50;;;;;;;9.23;2.92;;;;;;;;;;5027078;28;20040;-82
2023/01/10 04:47:15;;;;;;;3.45;0.77;;;;;;;;;;5026839;28;20025;-82
2023/01/10 04:49:41;;;;;;;9.32;1.27;;;;;;;;;;5026920;28;20108;-82
2023/01/10 04:52:06;;;;;;;18.20;2.10;;;;;;;;;;5026885;28;20124;-82
2023/01/10 04:54:31;;;;;;;6.57;1.50;;;;;;;;;;5027756;28;20045;-82
2023/01/10 04:56:57;;;;;;;11.07;2.28;;;;;;;;;;5027064;28;20099;-82
2023/01/10 04:59:22;;;;;;;5.80;1.27;;;;;;;;;;5026495;28;20037;-82
2023/01/10 05:01:48;;;;;;;26.13;1.70;;;;;;;;;;5027977;28;20053;-82
2023/01/10 05:04:13;;;;;;;13.10;1.67;;;;;;;;;;5013849;28;20044;-82
2023/01/10 05:06:39;;;;;;;10.63;1.75;;;;;;;;;;5007176;28;20050;-82
2023/01/10 05:09:06;;;;;;;14.82;2.17;;;;;;;;;;5015736;28;20113;-81
2023/01/10 05:11:31;;;;;;;14.00;2.00;;;;;;;;;;5026560;28;20034;-82
2023/01/10 05:13:57;;;;;;;13.02;2.20;;;;;;;;;;5026924;28;20017;-82
2023/01/10 05:16:24;;;;;;;6.00;1.58;;;;;;;;;;5027993;28;20057;-83
2023/01/10 05:18:49;;;;;;;11.00;1.83;;;;;;;;;;5027408;28;20566;-82
2023/01/10 05:21:15;;;;;;;7.82;1.60;;;;;;;;;;5023817;28;20057;-82
2023/01/10 05:23:42;;;;;;;8.50;1.95;;;;;;;;;;5028091;28;20025;-82
2023/01/10 05:26:10;;;;;;;12.27;1.67;;;;;;;;;;5026793;28;20396;-83
2023/01/10 05:28:36;;;;;;;4.45;1.42;;;;;;;;;;5026203;28;20013;-82
2023/01/10 05:31:05;;;;;;;17.98;2.20;;;;;;;;;;5027206;28;20041;-82
2023/01/10 05:33:30;;;;;;;8.77;1.40;;;;;;;;;;5022894;28;20045;-82
2023/01/10 05:35:55;;;;;;;9.15;1.45;;;;;;;;;;5026090;28;20114;-82
2023/01/10 05:38:20;;;;;;;11.95;1.70;;;;;;;;;;5025974;28;20121;-82
2023/01/10 05:40:46;;;;;;;2.25;0.88;;;;;;;;;;5025067;28;20025;-81
2023/01/10 05:43:11;;;;;;;10.48;1.30;;;;;;;;;;5024676;28;20033;-82
2023/01/10 05:45:37;;;;;;;12.52;1.70;;;;;;;;;;5026793;28;20493;-82
2023/01/10 05:48:02;;;;;;;6.88;1.40;;;;;;;;;;5027079;28;20040;-83
2023/01/10 05:50:28;;;;;;;12.68;1.98;;;;;;;;;;5022314;28;20061;-82
2023/01/10 05:52:53;;;;;;;3.03;1.15;;;;;;;;;;5006988;28;20053;-83
2023/01/10 05:55:18;;;;;;;4.22;1.70;;;;;;;;;;5021663;28;20041;-83
2023/01/10 05:57:44;;;;;;;10.43;1.63;;;;;;;;;;5021644;28;20037;-82
2023/01/10 06:00:10;;;;;;;15.18;1.35;;;;;;;;;;5023951;28;20053;-83
2023/01/10 06:02:35;;;;;;;20.17;2.22;;;;;;;;;;5026210;28;20038;-83
2023/01/10 06:05:00;;;;;;;9.25;1.85;;;;;;;;;;5026243;28;20817;-82
2023/01/10 06:07:26;;;;;;;19.20;3.65;;;;;;;;;;5019874;28;20049;-82
2023/01/10 06:09:51;;;;;;;3.72;1.15;;;;;;;;;;5021026;28;20087;-83
2023/01/10 06:12:19;;;;;;;6.97;1.40;;;;;;;;;;5025804;28;20041;-82
2023/01/10 06:14:45;;;;;;;15.15;2.35;;;;;;;;;;5027027;28;20034;-83
2023/01/10 06:17:10;;;;;;;5.78;1.65;;;;;;;;;;5025568;28;20144;-83
2023/01/10 06:19:35;;;;;;;20.58;3.55;;;;;;;;;;5027495;28;20060;-83
2023/01/10 06:22:02;;;;;;;22.98;4.35;;;;;;;;;;5027736;28;20048;-82
2023/01/10 06:24:28;;;;;;;21.42;4.60;;;;;;;;;;5026814;28;20037;-82
2023/01/10 06:26:53;;;;;;;18.50;4.63;;;;;;;;;;5025522;28;20460;-83
2023/01/10 06:29:18;;;;;;;19.27;4.47;;;;;;;;;;5027001;28;20475;-82
2023/01/10 06:31:44;;;;;;;21.80;4.88;;;;;;;;;;5025801;28;20072;-83
2023/01/10 06:34:09;;;;;;;8.07;1.95;;;;;;;;;;5025627;28;20044;-83
2023/01/10 06:36:34;;;;;;;11.55;1.70;;;;;;;;;;5026607;28;20034;-83
2023/01/10 06:39:00;;;;;;;11.82;2.08;;;;;;;;;;5029792;28;20040;-83
2023/01/10 06:41:26;;;;;;;7.00;1.73;;;;;;;;;;5030237;28;20038;-83
2023/01/10 06:43:51;;;;;;;16.13;2.40;;;;;;;;;;5030583;28;20049;-82
2023/01/10 06:46:18;;;;;;;17.35;2.83;;;;;;;;;;5029068;28;20414;-83
2023/01/10 06:48:44;;;;;;;9.48;2.28;;;;;;;;;;5028135;28;20506;-83
2023/01/10 06:51:11;;;;;;;11.13;2.72;;;;;;;;;;5029259;28;20499;-82
2023/01/10 06:53:36;;;;;;;12.73;3.53;;;;;;;;;;5027938;28;20240;-82
2023/01/10 06:56:04;;;;;;;13.73;3.00;;;;;;;;;;5029653;28;20143;-83
2023/01/10 06:58:30;;;;;;;17.00;2.92;;;;;;;;;;5016147;28;20021;-83
2023/01/10 07:00:55;;;;;;;13.30;2.08;;;;;;;;;;5010228;28;20038;-83
2023/01/10 07:03:20;;;;;;;10.80;2.08;;;;;;;;;;5018600;28;20033;-83
2023/01/10 07:05:45;;;;;;;17.33;2.65;;;;;;;;;;5021894;28;20511;-83
2023/01/10 07:08:11;;;;;;;7.75;2.00;;;;;;;;;;5022627;28;20064;-82
2023/01/10 07:10:40;;;;;;;16.27;2.42;;;;;;;;;;5028848;28;20018;-83
2023/01/10 07:13:05;;;;;;;11.35;2.90;;;;;;;;;;5029373;28;20033;-83
2023/01/10 07:15:30;;;;;;;9.02;2.03;;;;;;;;;;5028691;28;20040;-83
2023/01/10 07:17:57;;;;;;;10.60;2.40;;;;;;;;;;5024343;28;20030;-83
2023/01/10 07:20:22;;;;;;;10.32;2.85;;;;;;;;;;5028206;28;20037;-83
2023/01/10 07:22:58;;;;;;;12.00;2.88;;;;;;;;;;5029483;28;20392;-83
2023/01/10 07:25:25;;;;;;;4.38;1.33;;;;;;;;;;5019653;28;20077;-83
2023/01/10 07:27:54;;;;;;;14.45;2.65;;;;;;;;;;5021263;28;20029;-83
2023/01/10 07:30:19;;;;;;;10.85;2.03;;;;;;;;;;5022735;28;20065;-83
2023/01/10 07:32:45;;;;;;;8.40;1.90;;;;;;;;;;5015636;28;20033;-82
2023/01/10 07:35:10;;;;;;;9.88;2.55;;;;;;;;;;5024578;28;20514;-83
2023/01/10 07:37:35;;;;;;;2.92;1.48;;;;;;;;;;5028288;28;20376;-83
2023/01/10 07:40:00;;;;;;;17.02;2.15;;;;;;;;;;5028849;28;20041;-82
2023/01/10 07:42:26;;;;;;;12.55;2.33;;;;;;;;;;5027411;28;20032;-82
2023/01/10 07:44:51;;;;;;;16.42;2.53;;;;;;;;;;5028634;28;20030;-81
2023/01/10 07:47:16;;;;;;;16.48;2.30;;;;;;;;;;5021391;28;20052;-83
2023/01/10 07:49:42;;;;;;;8.13;1.90;;;;;;;;;;5028983;28;20721;-83
2023/01/10 07:52:08;;;;;;;20.08;2.67;;;;;;;;;;5026898;28;20053;-83
2023/01/10 07:54:34;;;;;;;9.50;1.73;;;;;;;;;;5028677;28;20033;-83
2023/01/10 07:56:59;;;;;;;9.07;2.92;;;;;;;;;;5025755;28;20657;-83
2023/01/10 07:59:25;;;;;;;8.45;3.47;;;;;;;;;;5027121;28;20132;-82
2023/01/10 08:01:50;;;;;;;11.68;2.08;;;;;;;;;;5027749;28;20036;-83
2023/01/10 08:04:15;;;;;;;8.30;2.70;;;;;;;;;;5024930;28;20545;-83
2023/01/10 08:06:41;;;;;;;5.88;2.20;;;;;;;;;;5028793;28;20037;-83
2023/01/10 08:09:06;;;;;;;3.28;1.38;;;;;;;;;;5020170;28;20124;-82
2023/01/10 08:11:31;;;;;;;8.75;2.13;;;;;;;;;;5021948;28;20123;-83
2023/01/10 08:13:57;;;;;;;20.38;3.03;;;;;;;;;;5016906;28;20041;-83
2023/01/10 08:16:22;;;;;;;15.85;1.75;;;;;;;;;;5017647;28;20576;-83
2023/01/10 08:18:47;;;;;;;13.60;2.38;;;;;;;;;;5026320;28;20045;-83
2023/01/10 08:21:13;;;;;;;2.00;1.75;;;;;;;;;;5024894;28;20064;-83
2023/01/10 08:23:38;;;;;;;6.00;2.20;;;;;;;;;;5026961;28;20029;-83
2023/01/10 08:26:04;;;;;;;2.10;1.55;;;;;;;;;;5026306;28;20395;-83
2023/01/10 08:28:30;;;;;;;12.35;1.80;;;;;;;;;;5023629;28;20022;-83
2023/01/10 08:30:56;;;;;;;10.93;1.75;;;;;;;;;;5027532;28;20033;-82
2023/01/10 08:33:23;;;;;;;13.38;2.10;;;;;;;;;;5025487;28;20026;-82
2023/01/10 08:35:49;;;;;;;3.33;1.45;;;;;;;;;;5025037;28;20045;-82
2023/01/10 08:38:14;;;;;;;10.30;2.80;;;;;;;;;;5026486;28;20029;-83
2023/01/10 08:40:40;;;;;;;9.07;3.15;;;;;;;;;;5028070;28;20028;-83
2023/01/10 08:43:08;;;;;;;4.82;1.55;;;;;;;;;;5026654;28;20156;-83
2023/01/10 08:45:34;;;;;;;3.85;1.25;;;;;;;;;;5024660;28;20065;-82
2023/01/10 08:48:00;;;;;;;5.70;1.58;;;;;;;;;;5027199;28;20100;-82
2023/01/10 08:50:25;;;;;;;9.20;2.35;;;;;;;;;;5025787;28;20108;-82
2023/01/10 08:52:51;;;;;;;12.07;1.58;;;;;;;;;;5027018;28;20108;-82
2023/01/10 08:55:17;;;;;;;11.40;2.42;;;;;;;;;;5025682;28;20029;-82
2023/01/10 08:57:43;;;;;;;5.90;0.98;;;;;;;;;;5026171;28;20052;-82
2023/01/10 09:00:10;;;;;;;7.53;1.52;;;;;;;;;;5025503;28;20049;-83
2023/01/10 09:02:36;;;;;;;11.60;1.27;;;;;;;;;;5024561;28;20104;-83
2023/01/10 09:05:01;;;;;;;13.38;1.83;;;;;;;;;;5018975;28;20033;-82
2023/01/10 09:07:26;;;;;;;4.88;1.40;;;;;;;;;;5014953;28;20026;-83
2023/01/10 09:09:52;;;;;;;6.88;1.15;;;;;;;;;;5022734;28;20061;-82
2023/01/10 09:15:01;;;;;;;5.28;1.58;;;;;;;;;;5019088;28;20099;-83
2023/01/10 09:17:27;;;;;;;4.30;2.03;;;;;;;;;;5021567;28;20069;-84
2023/01/10 09:19:54;;;;;;;12.40;2.72;;;;;;;;;;5027436;28;20049;-83
2023/01/10 09:22:20;;;;;;;2.85;1.38;;;;;;;;;;5065808;28;20043;-83
2023/01/10 09:24:45;;;;;;;5.80;2.13;;;;;;;;;;5066421;28;20036;-82
2023/01/10 09:27:10;;;;;;;19.90;2.35;;;;;;;;;;5067489;28;20070;-83
2023/01/10 09:29:36;;;;;;;6.03;1.38;;;;;;;;;;5067781;28;20032;-83
2023/01/10 09:32:01;;;;;;;8.35;2.03;;;;;;;;;;5033299;28;20060;-83
2023/01/10 09:34:27;;;;;;;5.38;1.38;;;;;;;;;;5025360;28;20637;-83
2023/01/10 09:36:53;;;;;;;11.38;2.17;;;;;;;;;;5036393;28;20037;-83
2023/01/10 09:39:20;;;;;;;11.45;1.98;;;;;;;;;;5033937;28;20053;-83
2023/01/10 09:42:25;;;;;;;10.02;2.20;;;;;;;;;;5030632;28;20033;-83
2023/01/10 09:45:04;;;;;;;9.32;1.55;;;;;;;;;;4979154;28;20429;-84
2023/01/10 09:47:46;;;;;;;5.40;1.35;;;;;;;;;;5036119;28;20060;-83
2023/01/10 09:50:20;;;;;;;5.72;1.95;;;;;;;;;;5041424;28;20079;-83
2023/01/10 09:53:15;;;;;;;5.18;1.30;;;;;;;;;;5040739;28;20029;-83
2023/01/10 09:55:41;;;;;;;13.98;1.27;;;;;;;;;;5044065;28;20041;-83
2023/01/10 09:58:13;;;;;;;5.60;1.85;;;;;;;;;;5021278;28;20511;-80
2023/01/10 10:00:43;;;;;;;7.78;1.58;;;;;;;;;;5022746;28;20052;-80
2023/01/10 10:03:35;;;;;;;2.78;1.05;;;;;;;;;;5024485;28;20033;-79
2023/01/10 10:06:02;;;;;;;11.57;2.00;;;;;;;;;;5023086;28;20091;-80
2023/01/10 10:08:27;;;;;;;1.30;0.80;;;;;;;;;;5022593;28;20411;-81
2023/01/10 10:11:06;;;;;;;5.38;0.85;;;;;;;;;;5025253;28;20402;-80
2023/01/10 10:13:58;;;;;;;8.57;2.00;;;;;;;;;;5027759;28;20541;-81
2023/01/10 10:16:26;;;;;;;6.10;2.33;;;;;;;;;;5020265;28;20718;-79
2023/01/10 10:19:15;;;;;;;7.30;1.83;;;;;;;;;;5007657;28;20144;-79
2023/01/10 10:21:49;;;;;;;12.98;1.67;;;;;;;;;;5008145;28;20062;-79
2023/01/10 10:24:34;;;;;;;7.25;2.00;;;;;;;;;;5007974;28;20034;-79
2023/01/10 10:27:11;;;;;;;7.85;1.30;;;;;;;;;;5005978;28;20036;-79
2023/01/10 10:30:23;;;;;;;19.05;2.47;;;;;;;;;;5008049;28;20529;-79
2023/01/10 10:33:13;;;;;;;13.00;2.70;;;;;;;;;;4999618;28;20519;-80
2023/01/10 10:35:42;;;;;;;12.85;2.10;;;;;;;;;;5006710;28;20038;-79
2023/01/10 10:38:19;;;;;;;9.10;2.47;;;;;;;;;;5007116;28;20073;-79
2023/01/10 10:40:46;;;;;;;6.93;1.83;;;;;;;;;;5006230;28;20025;-79
2023/01/10 10:43:25;;;;;;;0.82;0.63;;;;;;;;;;5006074;28;20034;-79
2023/01/10 10:46:01;;;;;;;12.90;2.00;;;;;;;;;;5007293;28;20037;-79
2023/01/10 10:48:30;;;;;;;9.27;2.42;;;;;;;;;;5005930;28;20033;-79
2023/01/10 10:51:04;;;;;;;20.30;2.20;;;;;;;;;;5004833;28;20044;-79
2023/01/10 10:53:31;;;;;;;23.98;2.05;;;;;;;;;;5006741;28;20036;-79
2023/01/10 10:55:57;;;;;;;11.80;2.50;;;;;;;;;;5005898;28;20029;-79
2023/01/10 10:58:24;;;;;;;15.60;2.30;;;;;;;;;;5013107;28;20048;-79
2023/01/10 11:00:50;;;;;;;12.98;2.10;;;;;;;;;;5007591;28;20042;-80
2023/01/10 11:03:24;;;;;;;13.20;2.20;;;;;;;;;;5027442;28;20033;-79
2023/01/10 11:05:49;;;;;;;2.25;0.75;;;;;;;;;;5026589;28;20053;-79
2023/01/10 11:08:17;;;;;;;6.18;1.38;;;;;;;;;;5026933;28;20148;-80
2023/01/10 11:10:47;;;;;;;6.90;1.73;;;;;;;;;;5028177;28;20155;-80
2023/01/10 11:13:31;;;;;;;9.80;1.95;;;;;;;;;;5024600;28;20044;-79
2023/01/10 11:15:57;;;;;;;6.43;1.52;;;;;;;;;;5024520;28;20033;-79
2023/01/10 11:18:25;;;;;;;6.20;1.80;;;;;;;;;;5026219;28;20435;-79
2023/01/10 11:20:57;;;;;;;9.98;1.73;;;;;;;;;;5021125;28;20038;-80
2023/01/10 11:23:40;;;;;;;6.65;1.85;;;;;;;;;;5023775;28;20030;-79
2023/01/10 11:26:09;;;;;;;10.52;2.17;;;;;;;;;;5023481;28;20028;-79
2023/01/10 11:28:36;;;;;;;5.72;1.63;;;;;;;;;;5026409;28;20092;-79
2023/01/10 11:31:02;;;;;;;12.32;2.15;;;;;;;;;;5023700;28;20041;-79
2023/01/10 11:33:34;;;;;;;4.35;1.23;;;;;;;;;;5022260;28;20045;-79
2023/01/10 11:36:08;;;;;;;10.93;2.17;;;;;;;;;;5025161;28;20033;-79
2023/01/10 11:38:34;;;;;;;6.03;1.10;;;;;;;;;;5024879;28;20112;-79
2023/01/10 11:41:16;;;;;;;8.30;1.52;;;;;;;;;;5025748;28;20029;-79
2023/01/10 11:43:42;;;;;;;3.17;1.38;;;;;;;;;;5046040;28;20025;-79
2023/01/10 11:46:20;;;;;;;9.55;2.28;;;;;;;;;;5044149;28;20448;-79
2023/01/10 11:49:05;;;;;;;10.98;1.90;;;;;;;;;;5044806;28;20041;-79
2023/01/10 11:51:37;;;;;;;6.22;1.90;;;;;;;;;;5044462;28;20040;-79
2023/01/10 11:54:10;;;;;;;13.15;1.65;;;;;;;;;;5045119;28;20041;-80
2023/01/10 11:56:42;;;;;;;15.15;2.22;;;;;;;;;;5043930;28;20724;-80
2023/01/10 11:59:16;;;;;;;10.93;1.67;;;;;;;;;;5045657;28;20021;-79
2023/01/10 12:01:52;;;;;;;8.10;1.85;;;;;;;;;;5010650;28;20059;-79
2023/01/10 12:04:20;;;;;;;8.02;1.95;;;;;;;;;;5010631;28;20038;-79
2023/01/10 12:06:49;;;;;;;9.27;1.70;;;;;;;;;;5025484;28;20033;-80
2023/01/10 12:09:38;;;;;;;10.05;2.08;;;;;;;;;;5033986;28;20534;-79
2023/01/10 12:12:17;;;;;;;8.10;2.40;;;;;;;;;;5036687;28;20051;-79
2023/01/10 12:14:43;;;;;;;3.10;1.63;;;;;;;;;;5042320;28;20032;-79
2023/01/10 12:17:33;;;;;;;9.20;1.83;;;;;;;;;;5012276;28;20050;-80
2023/01/10 12:20:00;;;;;;;8.43;1.90;;;;;;;;;;5038430;28;20099;-79
2023/01/10 12:22:32;;;;;;;9.45;1.80;;;;;;;;;;5027194;28;20075;-79
2023/01/10 12:25:01;;;;;;;7.93;2.83;;;;;;;;;;5026253;28;20029;-79
2023/01/10 12:27:28;;;;;;;5.38;1.77;;;;;;;;;;5026362;28;20038;-79
2023/01/10 12:29:53;;;;;;;8.00;1.67;;;;;;;;;;5025935;28;20034;-79
2023/01/10 12:32:26;;;;;;;4.63;1.38;;;;;;;;;;5025954;28;20029;-78
2023/01/10 12:35:03;;;;;;;;;;;;;;;;;;5025707;28;20022;-79
2023/01/10 12:37:39;;;;;;;2.55;1.33;;;;;;;;;;5047392;28;19983;-79
2023/01/10 12:40:13;;;;;;;9.43;1.48;;;;;;;;;;5025301;28;20136;-79
2023/01/10 12:45:41;;;;;;;5.55;1.30;;;;;;;;;;5024988;28;20102;-79
2023/01/10 12:48:12;;;;;;;6.40;1.63;;;;;;;;;;5024570;28;20038;-79
2023/01/10 12:50:52;;;;;;;5.22;1.27;;;;;;;;;;5024273;28;20037;-79
2023/01/10 12:53:20;;;;;;;3.92;2.38;;;;;;;;;;5021352;28;20110;-80
2023/01/10 12:55:47;;;;;;;8.07;2.45;;;;;;;;;;5024294;28;20033;-79
2023/01/10 12:58:27;;;;;;;4.38;1.33;;;;;;;;;;5023917;28;20510;-79
2023/01/10 13:00:57;;;;;;;4.20;1.98;;;;;;;;;;5023704;28;20041;-79
2023/01/10 13:03:29;;;;;;;7.28;1.90;;;;;;;;;;5030878;28;20120;-80
2023/01/10 13:05:56;;;;;;;7.93;2.03;;;;;;;;;;5036843;28;20041;-79
2023/01/10 13:08:25;;;;;;;3.63;1.25;;;;;;;;;;5021603;28;20452;-79
2023/01/10 13:10:54;;;;;;;5.03;1.30;;;;;;;;;;5024458;28;20501;-78
2023/01/10 13:13:30;;;;;;;4.57;1.08;;;;;;;;;;5023827;28;20117;-80
2023/01/10 13:16:26;;;;;;;5.70;1.42;;;;;;;;;;5022479;28;20037;-78
2023/01/10 13:18:58;;;;;;;1.73;0.90;;;;;;;;;;5024400;28;20049;-78
2023/01/10 13:21:24;;;;;;;2.35;1.55;;;;;;;;;;5022268;28;20080;-79
2023/01/10 13:23:51;;;;;;;5.97;1.13;;;;;;;;;;5023524;28;20514;-78
2023/01/10 13:26:17;;;;;;;2.33;1.25;;;;;;;;;;5008980;28;20406;-79
2023/01/10 13:28:56;;;;;;;3.55;1.30;;;;;;;;;;5014535;28;20568;-78
2023/01/10 13:31:24;;;;;;;9.38;1.45;;;;;;;;;;5023399;28;20056;-79
2023/01/10 13:33:54;;;;;;;4.57;1.25;;;;;;;;;;5022679;28;20037;-79
2023/01/10 13:36:26;;;;;;;4.88;1.13;;;;;;;;;;5022452;28;20124;-79
2023/01/10 13:38:56;;;;;;;7.53;1.55;;;;;;;;;;5022180;28;20042;-78
2023/01/10 13:44:06;;;;;;;7.95;2.78;;;;;;;;;;5022601;28;20032;-79
2023/01/10 13:46:34;;;;;;;11.38;1.38;;;;;;;;;;5024498;28;20652;-78
2023/01/10 13:49:01;;;;;;;6.03;1.50;;;;;;;;;;5026339;28;20044;-78
2023/01/10 13:51:27;;;;;;;2.25;1.23;;;;;;;;;;5027615;28;20376;-79
2023/01/10 13:54:15;;;;;;;8.73;2.85;;;;;;;;;;5030352;28;20045;-79
2023/01/10 13:56:44;;;;;;;4.97;2.15;;;;;;;;;;5027414;28;20033;-78
2023/01/10 14:02:28;;;;;;;1.67;0.80;;;;;;;;;;5028816;28;20489;-78
2023/01/10 14:05:16;;;;;;;1.70;0.98;;;;;;;;;;5026482;28;20103;-78
2023/01/10 14:07:49;;;;;;;2.67;1.00;;;;;;;;;;5050221;28;20120;-78
2023/01/10 14:10:30;;;;;;;4.95;1.83;;;;;;;;;;5046964;28;20040;-78
2023/01/10 14:13:13;;;;;;;1.45;0.82;;;;;;;;;;5046582;28;20071;-78
2023/01/10 14:15:41;;;;;;;4.95;1.42;;;;;;;;;;5047186;28;20037;-78
2023/01/10 14:18:15;;;;;;;4.30;1.02;;;;;;;;;;5018444;28;20069;-79
2023/01/10 14:20:41;;;;;;;0.70;0.60;;;;;;;;;;5013285;28;20029;-78
2023/01/10 14:23:19;;;;;;;1.60;0.90;;;;;;;;;;5009806;28;20036;-78
2023/01/10 14:25:51;;;;;;;1.35;1.10;;;;;;;;;;4989838;28;20527;-78
2023/01/10 14:28:32;;;;;;;0.47;0.47;;;;;;;;;;5001803;28;20423;-78
2023/01/10 14:31:27;;;;;;;1.02;0.60;;;;;;;;;;5006249;28;20769;-77
2023/01/10 14:33:53;;;;;;;1.88;0.80;;;;;;;;;;5009600;28;20042;-78
2023/01/10 14:36:29;;;;;;;1.80;0.63;;;;;;;;;;5007873;28;20068;-78
2023/01/10 14:39:02;;;;;;;0.98;0.50;;;;;;;;;;5007373;28;20054;-78
2023/01/10 14:41:34;;;;;;;4.00;0.70;;;;;;;;;;5026346;28;20393;-78
2023/01/10 14:44:06;;;;;;;1.80;0.40;;;;;;;;;;5026639;28;20095;-78
2023/01/10 14:47:01;;;;;;;2.40;0.82;;;;;;;;;;5025036;28;20286;-78
2023/01/10 14:49:34;;;;;;;0.50;0.50;;;;;;;;;;5042618;28;20094;-78
2023/01/10 14:52:14;;;;;;;4.03;1.02;;;;;;;;;;5028157;28;20127;-78
2023/01/10 14:54:40;;;;;;;0.80;0.80;;;;;;;;;;5028814;28;20101;-78
2023/01/10 14:57:19;;;;;;;1.83;0.82;;;;;;;;;;5045468;28;20037;-78
2023/01/10 14:59:45;;;;;;;0.73;0.60;;;;;;;;;;5046035;28;20060;-81
2023/01/10 15:02:22;;;;;;;0.52;0.50;;;;;;;;;;5046194;28;20021;-78
2023/01/10 15:05:00;;;;;;;1.05;0.80;;;;;;;;;;5010916;28;20040;-78
2023/01/10 15:07:26;;;;;;;1.13;0.68;;;;;;;;;;5006861;28;20053;-77
2023/01/10 15:09:57;;;;;;;0.80;0.65;;;;;;;;;;5006724;28;20030;-78
2023/01/10 15:12:25;;;;;;;0.75;0.60;;;;;;;;;;4989083;28;20034;-78
2023/01/10 15:15:00;;;;;;;0.60;0.60;;;;;;;;;;5006634;28;20048;-77
2023/01/10 15:17:26;;;;;;;0.70;0.40;;;;;;;;;;5006239;28;20053;-77